Time;durP1;ratioP1;P1;durP2;ratioP2;P2;SDS_P1;SDS_P2;PMS_P1;PMS_P2;Temp;Humidity;BMP_temperature;BMP_pressure;BME280_temperature;BME280_humidity;BME280_pressure;Samples;Min_cycle;Max_cycle;Signal;HPM_P1;HPM_P2
2023/12/27 00:01:19;;;;;;;1.90;1.60;;;;;;;;;;4962141;28;20046;-82
2023/12/27 00:03:44;;;;;;;2.90;1.73;;;;;;;;;;4961508;28;20046;-82
2023/12/27 00:06:09;;;;;;;3.95;1.85;;;;;;;;;;4979449;28;20178;-81
2023/12/27 00:08:37;;;;;;;4.55;1.70;;;;;;;;;;4979655;28;20045;-82
2023/12/27 00:11:03;;;;;;;1.95;1.25;;;;;;;;;;4979295;28;20042;-82
2023/12/27 00:13:28;;;;;;;3.22;1.42;;;;;;;;;;4978644;28;20529;-80
2023/12/27 00:15:53;;;;;;;3.42;1.63;;;;;;;;;;4961982;28;20035;-81
2023/12/27 00:18:19;;;;;;;2.10;1.63;;;;;;;;;;4961601;28;20026;-81
2023/12/27 00:20:47;;;;;;;3.75;1.60;;;;;;;;;;4979705;28;20034;-81
2023/12/27 00:23:12;;;;;;;3.10;1.52;;;;;;;;;;4978576;28;20045;-82
2023/12/27 00:25:37;;;;;;;3.50;1.77;;;;;;;;;;4986252;28;20035;-82
2023/12/27 00:28:03;;;;;;;2.17;1.58;;;;;;;;;;4997705;28;20084;-80
2023/12/27 00:30:28;;;;;;;3.05;1.65;;;;;;;;;;5003670;28;20494;-80
2023/12/27 00:32:53;;;;;;;3.10;1.63;;;;;;;;;;4999823;28;20049;-81
2023/12/27 00:35:19;;;;;;;8.20;2.00;;;;;;;;;;4997547;28;20064;-80
2023/12/27 00:37:44;;;;;;;2.70;1.52;;;;;;;;;;4998678;28;20039;-80
2023/12/27 00:40:10;;;;;;;1.73;1.60;;;;;;;;;;4998011;28;20034;-81
2023/12/27 00:42:36;;;;;;;4.07;1.77;;;;;;;;;;4980293;28;20517;-80
2023/12/27 00:45:01;;;;;;;2.33;1.20;;;;;;;;;;4998369;28;20030;-81
2023/12/27 00:47:26;;;;;;;5.15;1.35;;;;;;;;;;4997282;28;20493;-79
2023/12/27 00:49:51;;;;;;;2.83;1.88;;;;;;;;;;4997964;28;20113;-81
2023/12/27 00:52:17;;;;;;;3.95;2.03;;;;;;;;;;4997667;28;20034;-81
2023/12/27 00:54:42;;;;;;;3.88;1.70;;;;;;;;;;4997254;28;20041;-81
2023/12/27 00:57:07;;;;;;;2.15;1.50;;;;;;;;;;4997418;28;20081;-81
2023/12/27 00:59:33;;;;;;;5.07;1.90;;;;;;;;;;4997853;28;20071;-81
2023/12/27 01:01:58;;;;;;;2.67;1.73;;;;;;;;;;4997113;28;20046;-78
2023/12/27 01:04:23;;;;;;;2.25;1.55;;;;;;;;;;4995213;28;20130;-81
2023/12/27 01:06:48;;;;;;;4.78;1.92;;;;;;;;;;4995520;28;20118;-81
2023/12/27 01:09:14;;;;;;;1.70;1.60;;;;;;;;;;4979828;28;20505;-81
2023/12/27 01:11:39;;;;;;;2.92;1.67;;;;;;;;;;4997376;28;20039;-81
2023/12/27 01:14:05;;;;;;;5.55;1.83;;;;;;;;;;4997518;28;20072;-81
2023/12/27 01:16:30;;;;;;;1.75;1.48;;;;;;;;;;4996909;28;20039;-81
2023/12/27 01:18:56;;;;;;;2.28;1.40;;;;;;;;;;4979276;28;20757;-81
2023/12/27 01:21:21;;;;;;;3.28;1.45;;;;;;;;;;4996871;28;20414;-80
2023/12/27 01:23:47;;;;;;;4.35;1.50;;;;;;;;;;4998194;28;20153;-81
2023/12/27 01:26:12;;;;;;;4.45;1.77;;;;;;;;;;4980398;28;20392;-81
2023/12/27 01:28:37;;;;;;;3.78;1.55;;;;;;;;;;4996064;28;20050;-79
2023/12/27 01:31:03;;;;;;;3.00;1.88;;;;;;;;;;4997315;28;20053;-80
2023/12/27 01:33:28;;;;;;;3.30;1.58;;;;;;;;;;4997215;28;20130;-80
2023/12/27 01:35:54;;;;;;;2.78;1.65;;;;;;;;;;4963941;28;20065;-80
2023/12/27 01:38:20;;;;;;;1.63;1.42;;;;;;;;;;4978182;28;20038;-81
2023/12/27 01:40:49;;;;;;;1.88;1.63;;;;;;;;;;4996176;28;20126;-81
2023/12/27 01:43:15;;;;;;;1.92;1.70;;;;;;;;;;4994898;28;20053;-81
2023/12/27 01:45:40;;;;;;;2.53;1.58;;;;;;;;;;4978606;28;20490;-80
2023/12/27 01:48:06;;;;;;;4.35;1.73;;;;;;;;;;4978194;28;20074;-83
2023/12/27 01:50:32;;;;;;;1.42;1.33;;;;;;;;;;4996407;28;20117;-81
2023/12/27 01:52:57;;;;;;;2.30;1.55;;;;;;;;;;4978983;28;20493;-82
2023/12/27 01:55:22;;;;;;;2.33;1.40;;;;;;;;;;4995163;28;20031;-82
2023/12/27 01:57:48;;;;;;;3.63;1.90;;;;;;;;;;4995819;28;20321;-82
2023/12/27 02:00:15;;;;;;;4.03;2.03;;;;;;;;;;4994347;28;20049;-80
2023/12/27 02:02:40;;;;;;;2.78;2.00;;;;;;;;;;4996754;28;20084;-81
2023/12/27 02:05:06;;;;;;;2.97;2.00;;;;;;;;;;4977678;28;20039;-81
2023/12/27 02:07:32;;;;;;;2.00;1.83;;;;;;;;;;4995612;28;20506;-82
2023/12/27 02:09:57;;;;;;;2.85;1.75;;;;;;;;;;4996156;28;20041;-81
2023/12/27 02:12:28;;;;;;;4.18;1.98;;;;;;;;;;4995040;28;20607;-80
2023/12/27 02:14:53;;;;;;;1.92;1.50;;;;;;;;;;4978544;28;20026;-80
2023/12/27 02:17:20;;;;;;;4.70;2.10;;;;;;;;;;4978117;28;20045;-81
2023/12/27 02:19:46;;;;;;;3.17;1.85;;;;;;;;;;4995091;28;20036;-81
2023/12/27 02:22:15;;;;;;;1.90;1.77;;;;;;;;;;4978007;28;20310;-83
2023/12/27 02:24:40;;;;;;;5.28;1.65;;;;;;;;;;4995518;28;20495;-83
2023/12/27 02:27:06;;;;;;;6.50;1.85;;;;;;;;;;4995221;28;20045;-80
2023/12/27 02:29:31;;;;;;;1.73;1.63;;;;;;;;;;4995966;28;20053;-81
2023/12/27 02:31:56;;;;;;;2.38;1.60;;;;;;;;;;4995463;28;20387;-80
2023/12/27 02:34:22;;;;;;;4.07;2.28;;;;;;;;;;4995015;28;20450;-81
2023/12/27 02:36:47;;;;;;;1.75;1.40;;;;;;;;;;4995073;28;20034;-82
2023/12/27 02:39:12;;;;;;;2.50;1.90;;;;;;;;;;4993748;28;20035;-81
2023/12/27 02:41:39;;;;;;;2.38;1.45;;;;;;;;;;4995586;28;20049;-82
2023/12/27 02:44:04;;;;;;;8.27;1.80;;;;;;;;;;4995094;28;20038;-81
2023/12/27 02:46:35;;;;;;;5.28;2.13;;;;;;;;;;4977034;28;20576;-80
2023/12/27 02:49:01;;;;;;;2.38;1.80;;;;;;;;;;4995541;28;20082;-82
2023/12/27 02:51:26;;;;;;;3.22;1.65;;;;;;;;;;4976212;28;20105;-82
2023/12/27 02:53:51;;;;;;;1.67;1.48;;;;;;;;;;4995379;28;20534;-81
2023/12/27 02:56:17;;;;;;;7.38;1.60;;;;;;;;;;4994696;28;20035;-81
2023/12/27 02:58:42;;;;;;;2.55;1.73;;;;;;;;;;4995046;28;20049;-81
2023/12/27 03:01:08;;;;;;;3.47;1.80;;;;;;;;;;4994725;28;20117;-81
2023/12/27 03:03:33;;;;;;;2.47;1.55;;;;;;;;;;4994646;28;20042;-82
2023/12/27 03:05:58;;;;;;;1.77;1.60;;;;;;;;;;4994973;28;20034;-81
2023/12/27 03:08:24;;;;;;;2.45;1.40;;;;;;;;;;4994014;28;20129;-80
2023/12/27 03:10:49;;;;;;;2.47;1.70;;;;;;;;;;4993792;28;20065;-81
2023/12/27 03:13:14;;;;;;;1.95;1.60;;;;;;;;;;4975338;28;20469;-80
2023/12/27 03:15:39;;;;;;;2.22;1.67;;;;;;;;;;4994376;28;20034;-79
2023/12/27 03:18:05;;;;;;;1.67;1.40;;;;;;;;;;4994074;28;20041;-83
2023/12/27 03:20:30;;;;;;;3.35;1.58;;;;;;;;;;4977664;28;20105;-81
2023/12/27 03:22:55;;;;;;;1.45;1.35;;;;;;;;;;4976404;28;20038;-81
2023/12/27 03:25:21;;;;;;;2.50;1.75;;;;;;;;;;4975230;28;20510;-82
2023/12/27 03:27:46;;;;;;;1.67;1.50;;;;;;;;;;4974761;28;20081;-80
2023/12/27 03:30:11;;;;;;;2.05;1.45;;;;;;;;;;4974445;28;20081;-81
2023/12/27 03:32:37;;;;;;;1.88;1.77;;;;;;;;;;4973936;28;20042;-83
2023/12/27 03:35:02;;;;;;;1.65;1.50;;;;;;;;;;4991453;28;21696;-82
2023/12/27 03:37:28;;;;;;;2.33;1.60;;;;;;;;;;4976330;28;20133;-82
2023/12/27 03:39:53;;;;;;;2.83;1.70;;;;;;;;;;4993739;28;20117;-80
2023/12/27 03:42:19;;;;;;;3.70;1.80;;;;;;;;;;4993718;28;20049;-82
2023/12/27 03:44:46;;;;;;;1.42;1.33;;;;;;;;;;4995067;28;20038;-81
2023/12/27 03:47:11;;;;;;;1.50;1.40;;;;;;;;;;4994389;28;20058;-81
2023/12/27 03:49:36;;;;;;;2.70;1.52;;;;;;;;;;4976402;28;20037;-82
2023/12/27 03:52:02;;;;;;;2.28;1.65;;;;;;;;;;4997697;28;20035;-79
2023/12/27 03:54:27;;;;;;;3.95;1.65;;;;;;;;;;4997987;28;20161;-83
2023/12/27 03:56:52;;;;;;;1.88;1.70;;;;;;;;;;4981418;28;20030;-83
2023/12/27 03:59:17;;;;;;;6.53;1.73;;;;;;;;;;4997846;28;20039;-82
2023/12/27 04:01:43;;;;;;;3.00;1.60;;;;;;;;;;4997464;28;20453;-82
2023/12/27 04:04:08;;;;;;;2.97;1.67;;;;;;;;;;4998528;28;20030;-80
2023/12/27 04:06:34;;;;;;;3.13;1.70;;;;;;;;;;4996767;28;20049;-81
2023/12/27 04:08:59;;;;;;;3.47;1.83;;;;;;;;;;5010479;28;20037;-81
2023/12/27 04:11:24;;;;;;;5.03;1.60;;;;;;;;;;5002310;28;20038;-80
2023/12/27 04:13:50;;;;;;;2.28;1.75;;;;;;;;;;4993540;28;20038;-81
2023/12/27 04:16:15;;;;;;;2.40;1.50;;;;;;;;;;4977424;28;20451;-81
2023/12/27 04:18:40;;;;;;;1.67;1.58;;;;;;;;;;4969228;28;20035;-80
2023/12/27 04:21:05;;;;;;;4.20;1.75;;;;;;;;;;4999423;28;20093;-81
2023/12/27 04:23:31;;;;;;;2.30;1.95;;;;;;;;;;4992869;28;20038;-81
2023/12/27 04:25:56;;;;;;;2.45;1.50;;;;;;;;;;4976061;28;20057;-81
2023/12/27 04:28:22;;;;;;;3.97;1.90;;;;;;;;;;4976623;28;20054;-82
2023/12/27 04:30:47;;;;;;;3.25;1.65;;;;;;;;;;4994432;28;20042;-81
2023/12/27 04:33:12;;;;;;;2.28;1.58;;;;;;;;;;4998384;28;20034;-82
2023/12/27 04:35:38;;;;;;;3.30;1.92;;;;;;;;;;4998725;28;20493;-81
2023/12/27 04:38:03;;;;;;;1.92;1.70;;;;;;;;;;4990034;28;20026;-78
2023/12/27 04:40:28;;;;;;;1.67;1.50;;;;;;;;;;4970359;28;20034;-84
2023/12/27 04:42:54;;;;;;;1.73;1.60;;;;;;;;;;4998563;28;20034;-82
2023/12/27 04:45:19;;;;;;;4.00;1.75;;;;;;;;;;4985546;28;20063;-80
2023/12/27 04:47:45;;;;;;;3.67;1.75;;;;;;;;;;4980249;28;20779;-82
2023/12/27 04:50:10;;;;;;;2.20;1.58;;;;;;;;;;4976004;28;20049;-81
2023/12/27 04:52:35;;;;;;;1.85;1.40;;;;;;;;;;4989741;28;20034;-82
2023/12/27 04:55:00;;;;;;;1.88;1.35;;;;;;;;;;4997841;28;20045;-82
2023/12/27 04:57:26;;;;;;;6.10;2.42;;;;;;;;;;4997648;28;20061;-80
2023/12/27 04:59:51;;;;;;;10.32;2.40;;;;;;;;;;4996006;28;20033;-82
2023/12/27 05:02:16;;;;;;;3.75;1.85;;;;;;;;;;4975679;28;20046;-81
2023/12/27 05:04:41;;;;;;;4.00;2.25;;;;;;;;;;4997591;28;20058;-82
2023/12/27 05:07:07;;;;;;;4.57;1.90;;;;;;;;;;4991510;28;20407;-81
2023/12/27 05:09:32;;;;;;;2.72;1.88;;;;;;;;;;4994886;28;20053;-82
2023/12/27 05:11:58;;;;;;;2.13;1.63;;;;;;;;;;4997262;28;20038;-83
2023/12/27 05:14:23;;;;;;;7.30;1.65;;;;;;;;;;5001524;28;20093;-79
2023/12/27 05:16:48;;;;;;;3.88;2.08;;;;;;;;;;4983161;28;20041;-79
2023/12/27 05:19:14;;;;;;;2.97;1.90;;;;;;;;;;4988898;28;20525;-81
2023/12/27 05:21:39;;;;;;;2.22;1.77;;;;;;;;;;4979456;28;20033;-79
2023/12/27 05:24:05;;;;;;;2.20;1.67;;;;;;;;;;4979615;28;20030;-82
2023/12/27 05:26:30;;;;;;;2.17;1.60;;;;;;;;;;4993340;28;20026;-81
2023/12/27 05:28:55;;;;;;;5.97;2.05;;;;;;;;;;4996322;28;20038;-82
2023/12/27 05:31:21;;;;;;;2.05;1.83;;;;;;;;;;4985393;28;20414;-80
2023/12/27 05:33:46;;;;;;;2.33;1.92;;;;;;;;;;4962115;28;20034;-81
2023/12/27 05:36:12;;;;;;;4.00;1.83;;;;;;;;;;4992649;28;20026;-81
2023/12/27 05:38:37;;;;;;;2.03;1.80;;;;;;;;;;4992382;28;20034;-81
2023/12/27 05:41:03;;;;;;;2.03;1.80;;;;;;;;;;4977654;28;20046;-81
2023/12/27 05:43:28;;;;;;;2.47;1.45;;;;;;;;;;4987945;28;20054;-80
2023/12/27 05:45:54;;;;;;;4.50;2.47;;;;;;;;;;4984011;28;20444;-80
2023/12/27 05:48:19;;;;;;;4.30;1.80;;;;;;;;;;4992376;28;20263;-80
2023/12/27 05:50:44;;;;;;;3.90;2.08;;;;;;;;;;4986075;28;20474;-79
2023/12/27 05:53:10;;;;;;;3.55;2.28;;;;;;;;;;4985559;28;20026;-80
2023/12/27 05:55:35;;;;;;;3.72;2.22;;;;;;;;;;4988820;28;20023;-79
2023/12/27 05:58:00;;;;;;;3.22;1.73;;;;;;;;;;4987584;28;20042;-80
2023/12/27 06:00:26;;;;;;;2.15;1.95;;;;;;;;;;4973744;28;20057;-80
2023/12/27 06:02:51;;;;;;;1.80;1.70;;;;;;;;;;4991746;28;20050;-81
2023/12/27 06:05:16;;;;;;;2.47;2.03;;;;;;;;;;4994282;28;20112;-80
2023/12/27 06:07:42;;;;;;;8.27;1.52;;;;;;;;;;4981558;28;20680;-80
2023/12/27 06:10:07;;;;;;;3.70;2.15;;;;;;;;;;4973944;28;20457;-79
2023/12/27 06:12:33;;;;;;;1.65;1.52;;;;;;;;;;4981701;28;20058;-79
2023/12/27 06:14:59;;;;;;;2.60;2.17;;;;;;;;;;4991043;28;20498;-80
2023/12/27 06:17:24;;;;;;;4.25;2.08;;;;;;;;;;4990320;28;20041;-81
2023/12/27 06:19:50;;;;;;;2.65;1.95;;;;;;;;;;4971823;28;20042;-80
2023/12/27 06:22:16;;;;;;;4.28;2.25;;;;;;;;;;4987459;28;20471;-80
2023/12/27 06:24:41;;;;;;;3.03;1.90;;;;;;;;;;4971061;28;20034;-79
2023/12/27 06:27:06;;;;;;;5.63;2.28;;;;;;;;;;4985945;28;20053;-80
2023/12/27 06:29:35;;;;;;;4.70;2.13;;;;;;;;;;4994053;28;20045;-80
2023/12/27 06:32:02;;;;;;;2.50;2.05;;;;;;;;;;4990272;28;20089;-79
2023/12/27 06:34:28;;;;;;;3.53;2.30;;;;;;;;;;4994399;28;20031;-79
2023/12/27 06:36:53;;;;;;;3.53;2.30;;;;;;;;;;4986037;28;20157;-80
2023/12/27 06:39:18;;;;;;;3.33;2.10;;;;;;;;;;4969753;28;20053;-79
2023/12/27 06:41:44;;;;;;;4.88;2.08;;;;;;;;;;4983552;28;20668;-79
2023/12/27 06:44:09;;;;;;;6.72;2.58;;;;;;;;;;4971047;28;20030;-79
2023/12/27 06:46:35;;;;;;;4.53;2.20;;;;;;;;;;4987771;28;20065;-79
2023/12/27 06:49:00;;;;;;;3.47;2.28;;;;;;;;;;4986288;28;20050;-80
2023/12/27 06:51:25;;;;;;;4.63;2.25;;;;;;;;;;4979494;28;20054;-80
2023/12/27 06:53:51;;;;;;;2.90;2.05;;;;;;;;;;4983166;28;20037;-79
2023/12/27 06:56:16;;;;;;;5.82;2.20;;;;;;;;;;4968326;28;20053;-80
2023/12/27 06:58:42;;;;;;;1.90;1.75;;;;;;;;;;4979107;28;20097;-80
2023/12/27 07:01:09;;;;;;;3.13;2.03;;;;;;;;;;4962931;28;20039;-79
2023/12/27 07:03:34;;;;;;;3.22;1.85;;;;;;;;;;4969292;28;20034;-79
2023/12/27 07:06:00;;;;;;;1.90;1.80;;;;;;;;;;4989463;28;20437;-80
2023/12/27 07:08:25;;;;;;;2.80;1.80;;;;;;;;;;4966116;28;20061;-80
2023/12/27 07:10:50;;;;;;;4.03;1.98;;;;;;;;;;4985786;28;20474;-79
2023/12/27 07:13:15;;;;;;;2.08;1.52;;;;;;;;;;4988206;28;20034;-79
2023/12/27 07:15:41;;;;;;;2.35;2.00;;;;;;;;;;4981997;28;20039;-79
2023/12/27 07:18:06;;;;;;;2.30;1.67;;;;;;;;;;4985811;28;20138;-79
2023/12/27 07:20:32;;;;;;;2.13;1.65;;;;;;;;;;4993688;28;20441;-79
2023/12/27 07:22:57;;;;;;;1.90;1.63;;;;;;;;;;4987397;28;20093;-79
2023/12/27 07:25:22;;;;;;;2.28;1.83;;;;;;;;;;4983623;28;20071;-79
2023/12/27 07:27:48;;;;;;;3.08;2.05;;;;;;;;;;4981471;28;20067;-79
2023/12/27 07:30:13;;;;;;;2.45;1.58;;;;;;;;;;4981942;28;20064;-80
2023/12/27 07:32:39;;;;;;;1.60;1.50;;;;;;;;;;4981672;28;20042;-79
2023/12/27 07:35:04;;;;;;;2.40;2.00;;;;;;;;;;4981655;28;20603;-79
2023/12/27 07:37:30;;;;;;;2.22;1.60;;;;;;;;;;4964919;28;20039;-79
2023/12/27 07:39:55;;;;;;;7.35;2.42;;;;;;;;;;4988047;28;20065;-79
2023/12/27 07:42:21;;;;;;;4.00;2.13;;;;;;;;;;4987435;28;20346;-79
2023/12/27 07:44:47;;;;;;;3.13;2.05;;;;;;;;;;4981597;28;20043;-80
2023/12/27 07:47:12;;;;;;;3.00;1.90;;;;;;;;;;4979463;28;20093;-80
2023/12/27 07:49:38;;;;;;;2.10;1.67;;;;;;;;;;4970480;28;20050;-79
2023/12/27 07:52:03;;;;;;;2.95;1.90;;;;;;;;;;4988559;28;20463;-79
2023/12/27 07:54:31;;;;;;;3.17;1.80;;;;;;;;;;4984990;28;20708;-79
2023/12/27 07:56:56;;;;;;;2.63;2.08;;;;;;;;;;4977739;28;20030;-79
2023/12/27 07:59:21;;;;;;;1.60;1.50;;;;;;;;;;4982195;28;20050;-79
2023/12/27 08:01:47;;;;;;;3.38;1.88;;;;;;;;;;4980241;28;20130;-79
2023/12/27 08:04:12;;;;;;;1.80;1.70;;;;;;;;;;4978778;28;20058;-80
2023/12/27 08:06:37;;;;;;;3.53;2.00;;;;;;;;;;4965972;28;20042;-79
2023/12/27 08:09:03;;;;;;;3.05;1.75;;;;;;;;;;4979687;28;20046;-79
2023/12/27 08:11:28;;;;;;;2.47;1.65;;;;;;;;;;4980616;28;20539;-79
2023/12/27 08:13:54;;;;;;;4.43;1.70;;;;;;;;;;4991972;28;20566;-80
2023/12/27 08:16:19;;;;;;;1.80;1.58;;;;;;;;;;4985683;28;20038;-79
2023/12/27 08:18:44;;;;;;;2.75;1.50;;;;;;;;;;4957752;28;20035;-79
2023/12/27 08:21:10;;;;;;;1.60;1.50;;;;;;;;;;4956303;28;20035;-78
2023/12/27 08:23:38;;;;;;;3.97;2.00;;;;;;;;;;4982457;28;20039;-80
2023/12/27 08:26:06;;;;;;;2.55;1.75;;;;;;;;;;4973455;28;20376;-79
2023/12/27 08:28:35;;;;;;;2.00;1.55;;;;;;;;;;4952492;28;20039;-79
2023/12/27 08:31:04;;;;;;;2.78;2.38;;;;;;;;;;4964287;28;20085;-79
2023/12/27 08:33:35;;;;;;;2.00;1.80;;;;;;;;;;4989241;28;20034;-79
2023/12/27 08:36:01;;;;;;;1.80;1.70;;;;;;;;;;4982788;28;20042;-80
2023/12/27 08:38:26;;;;;;;2.30;2.10;;;;;;;;;;4960402;28;20088;-80
2023/12/27 08:40:51;;;;;;;2.55;1.80;;;;;;;;;;4961626;28;20519;-79
2023/12/27 08:43:20;;;;;;;2.63;1.60;;;;;;;;;;4971159;28;20042;-81
2023/12/27 08:45:48;;;;;;;4.00;2.10;;;;;;;;;;4970785;28;20428;-80
2023/12/27 08:48:14;;;;;;;1.95;1.58;;;;;;;;;;4974542;28;20042;-80
2023/12/27 08:50:41;;;;;;;2.80;1.50;;;;;;;;;;4977810;28;20388;-79
2023/12/27 08:53:07;;;;;;;2.70;1.60;;;;;;;;;;4979442;28;20841;-80
2023/12/27 08:55:32;;;;;;;2.63;2.05;;;;;;;;;;4967287;28;20035;-79
2023/12/27 08:57:57;;;;;;;2.63;1.67;;;;;;;;;;4965391;28;20522;-80
2023/12/27 09:00:22;;;;;;;5.20;2.10;;;;;;;;;;4961175;28;20109;-80
2023/12/27 09:02:48;;;;;;;3.20;2.13;;;;;;;;;;4977689;28;20057;-80
2023/12/27 09:05:13;;;;;;;3.13;2.00;;;;;;;;;;4981190;28;20463;-81
2023/12/27 09:07:39;;;;;;;2.05;1.58;;;;;;;;;;4975774;28;20038;-80
2023/12/27 09:10:04;;;;;;;1.58;1.40;;;;;;;;;;4981566;28;20030;-79
2023/12/27 09:12:30;;;;;;;3.95;1.63;;;;;;;;;;4974027;28;20043;-78
2023/12/27 09:14:55;;;;;;;1.67;1.38;;;;;;;;;;4973516;28;20046;-78
2023/12/27 09:17:20;;;;;;;1.52;1.42;;;;;;;;;;4972094;28;20108;-79
2023/12/27 09:19:46;;;;;;;2.03;1.63;;;;;;;;;;4956061;28;20430;-78
2023/12/27 09:22:11;;;;;;;1.77;1.33;;;;;;;;;;4976277;28;20031;-78
2023/12/27 09:24:37;;;;;;;1.52;1.20;;;;;;;;;;4980208;28;20046;-80
2023/12/27 09:27:03;;;;;;;1.85;1.38;;;;;;;;;;4954328;28;20448;-80
2023/12/27 09:29:30;;;;;;;1.98;1.33;;;;;;;;;;4958980;28;20476;-80
2023/12/27 09:31:55;;;;;;;1.35;1.25;;;;;;;;;;4978243;28;20054;-80
2023/12/27 09:34:21;;;;;;;2.28;1.60;;;;;;;;;;4953334;28;20034;-80
2023/12/27 09:36:46;;;;;;;1.40;1.30;;;;;;;;;;4976422;28;20082;-79
2023/12/27 09:39:13;;;;;;;1.80;1.50;;;;;;;;;;4978180;28;20157;-79
2023/12/27 09:41:39;;;;;;;1.60;1.20;;;;;;;;;;4976481;28;20039;-79
2023/12/27 09:44:07;;;;;;;1.33;1.25;;;;;;;;;;4979227;28;20058;-80
2023/12/27 09:46:33;;;;;;;6.32;1.27;;;;;;;;;;4981415;28;20053;-80
2023/12/27 09:48:59;;;;;;;1.52;1.23;;;;;;;;;;4960383;28;20487;-81
2023/12/27 09:51:25;;;;;;;1.75;1.40;;;;;;;;;;4973897;28;20149;-81
2023/12/27 09:53:51;;;;;;;2.55;1.35;;;;;;;;;;4974345;28;20140;-80
2023/12/27 09:56:18;;;;;;;2.42;1.30;;;;;;;;;;4976480;28;20133;-81
2023/12/27 09:58:45;;;;;;;1.20;1.10;;;;;;;;;;4977481;28;20039;-81
2023/12/27 10:01:11;;;;;;;1.20;1.20;;;;;;;;;;4978284;28;20577;-80
2023/12/27 10:03:40;;;;;;;2.65;1.60;;;;;;;;;;4974995;28;20045;-80
2023/12/27 10:06:16;;;;;;;1.60;1.50;;;;;;;;;;4974483;28;20034;-80
2023/12/27 10:08:41;;;;;;;3.08;1.55;;;;;;;;;;4937833;28;20462;-80
2023/12/27 10:11:09;;;;;;;1.55;1.40;;;;;;;;;;4957011;28;20105;-80
2023/12/27 10:13:38;;;;;;;1.92;1.20;;;;;;;;;;4976544;28;20081;-79
2023/12/27 10:16:04;;;;;;;1.70;1.60;;;;;;;;;;4986882;28;20046;-78
2023/12/27 10:18:30;;;;;;;1.33;1.30;;;;;;;;;;4999299;28;20045;-79
2023/12/27 10:20:56;;;;;;;2.35;1.23;;;;;;;;;;4991152;28;20035;-80
2023/12/27 10:23:22;;;;;;;1.20;1.10;;;;;;;;;;4978905;28;20058;-80
2023/12/27 10:25:51;;;;;;;1.15;1.00;;;;;;;;;;4978889;28;20565;-80
2023/12/27 10:28:16;;;;;;;1.35;1.25;;;;;;;;;;4982963;28;20042;-78
2023/12/27 10:30:43;;;;;;;1.42;1.20;;;;;;;;;;4963804;28;20057;-79
2023/12/27 10:33:09;;;;;;;1.27;1.17;;;;;;;;;;4976514;28;20074;-80
2023/12/27 10:35:38;;;;;;;3.30;1.10;;;;;;;;;;4980645;28;20042;-79
2023/12/27 10:38:05;;;;;;;1.52;1.23;;;;;;;;;;4981745;28;20035;-81
2023/12/27 10:40:31;;;;;;;1.40;1.05;;;;;;;;;;4983084;28;20042;-79
2023/12/27 10:42:57;;;;;;;1.52;1.10;;;;;;;;;;4987962;28;20510;-81
2023/12/27 10:45:22;;;;;;;2.45;1.10;;;;;;;;;;4978449;28;20411;-80
2023/12/27 10:47:49;;;;;;;1.20;1.05;;;;;;;;;;4981239;28;20041;-81
2023/12/27 10:50:19;;;;;;;2.78;1.00;;;;;;;;;;4980735;28;20035;-81
2023/12/27 10:52:46;;;;;;;1.20;1.10;;;;;;;;;;4983469;28;20034;-80
2023/12/27 10:55:17;;;;;;;1.60;1.30;;;;;;;;;;4963570;28;20035;-79
2023/12/27 10:57:43;;;;;;;1.00;1.00;;;;;;;;;;4979891;28;20047;-79
2023/12/27 11:00:10;;;;;;;1.45;1.35;;;;;;;;;;4973378;28;20026;-80
2023/12/27 11:02:36;;;;;;;3.88;1.20;;;;;;;;;;4989161;28;20030;-79
2023/12/27 11:05:03;;;;;;;1.20;1.00;;;;;;;;;;4989601;28;20047;-80
2023/12/27 11:07:31;;;;;;;2.00;1.30;;;;;;;;;;4989367;28;20026;-80
2023/12/27 11:10:01;;;;;;;3.10;1.27;;;;;;;;;;4988512;28;20046;-80
2023/12/27 11:12:28;;;;;;;0.82;0.82;;;;;;;;;;4976032;28;20031;-79
2023/12/27 11:14:56;;;;;;;1.35;1.15;;;;;;;;;;4991353;28;20037;-80
2023/12/27 11:17:23;;;;;;;1.88;1.02;;;;;;;;;;4991366;28;20526;-79
2023/12/27 11:19:51;;;;;;;2.45;1.30;;;;;;;;;;4994734;28;20046;-81
2023/12/27 11:22:16;;;;;;;1.73;1.58;;;;;;;;;;4990133;28;20039;-81
2023/12/27 11:24:43;;;;;;;1.65;1.48;;;;;;;;;;4992762;28;20105;-81
2023/12/27 11:27:09;;;;;;;1.20;1.05;;;;;;;;;;4993133;28;20030;-81
2023/12/27 11:29:34;;;;;;;1.40;1.30;;;;;;;;;;4982739;28;20031;-79
2023/12/27 11:31:59;;;;;;;3.25;1.80;;;;;;;;;;4986026;28;20042;-81
2023/12/27 11:34:25;;;;;;;2.22;1.50;;;;;;;;;;4994890;28;20076;-79
2023/12/27 11:36:51;;;;;;;2.17;1.30;;;;;;;;;;4977344;28;20035;-79
2023/12/27 11:39:20;;;;;;;2.88;1.48;;;;;;;;;;4995907;28;20034;-80
2023/12/27 11:41:47;;;;;;;1.90;1.23;;;;;;;;;;4967963;28;20030;-81
2023/12/27 11:44:17;;;;;;;1.25;1.15;;;;;;;;;;4979156;28;20042;-81
2023/12/27 11:46:43;;;;;;;4.82;1.30;;;;;;;;;;4982144;28;20057;-81
2023/12/27 11:49:17;;;;;;;1.88;1.50;;;;;;;;;;4984461;28;20047;-81
2023/12/27 11:51:42;;;;;;;1.75;1.52;;;;;;;;;;4993218;28;20039;-81
2023/12/27 11:54:08;;;;;;;1.85;1.50;;;;;;;;;;4979307;28;20502;-80
2023/12/27 11:56:35;;;;;;;2.55;1.40;;;;;;;;;;4989514;28;20046;-81
2023/12/27 11:59:01;;;;;;;1.20;1.10;;;;;;;;;;4973102;28;20035;-82
2023/12/27 12:01:31;;;;;;;1.25;1.08;;;;;;;;;;4992313;28;20406;-82
2023/12/27 12:04:32;;;;;;;1.35;1.25;;;;;;;;;;4982132;28;20498;-81
2023/12/27 12:07:38;;;;;;;1.63;1.10;;;;;;;;;;4971281;28;20526;-80
2023/12/27 12:10:19;;;;;;;4.05;1.00;;;;;;;;;;4956444;28;20059;-80
2023/12/27 12:12:45;;;;;;;1.08;1.00;;;;;;;;;;4983436;28;20030;-80
2023/12/27 12:15:12;;;;;;;1.38;1.17;;;;;;;;;;4972905;28;20386;-79
2023/12/27 12:17:39;;;;;;;1.42;1.30;;;;;;;;;;4997268;28;20026;-79
2023/12/27 12:20:06;;;;;;;1.25;1.15;;;;;;;;;;4982763;28;20038;-79
2023/12/27 12:22:34;;;;;;;1.30;1.20;;;;;;;;;;4991600;28;20058;-78
2023/12/27 12:25:07;;;;;;;3.50;1.30;;;;;;;;;;4991993;28;20383;-79
2023/12/27 12:27:33;;;;;;;4.00;1.20;;;;;;;;;;4973449;28;20034;-79
2023/12/27 12:29:58;;;;;;;1.05;1.02;;;;;;;;;;4982102;28;20423;-79
2023/12/27 12:32:25;;;;;;;1.20;1.10;;;;;;;;;;4961057;28;20051;-82
2023/12/27 12:34:50;;;;;;;1.63;1.10;;;;;;;;;;4992336;28;20030;-82
2023/12/27 12:37:17;;;;;;;2.42;1.30;;;;;;;;;;4981959;28;20130;-80
2023/12/27 12:39:44;;;;;;;2.50;1.52;;;;;;;;;;4989014;28;20456;-82
2023/12/27 12:42:09;;;;;;;0.90;0.90;;;;;;;;;;4980627;28;20046;-79
2023/12/27 12:44:36;;;;;;;1.95;1.42;;;;;;;;;;4978756;28;20026;-82
2023/12/27 12:47:02;;;;;;;1.63;1.20;;;;;;;;;;4993311;28;20042;-81
2023/12/27 12:49:29;;;;;;;0.85;0.85;;;;;;;;;;4997944;28;20038;-81
2023/12/27 12:52:05;;;;;;;2.33;1.15;;;;;;;;;;4994374;28;20065;-80
2023/12/27 12:54:31;;;;;;;2.72;1.23;;;;;;;;;;4987506;28;20058;-79
2023/12/27 12:57:00;;;;;;;1.58;1.33;;;;;;;;;;4999099;28;20049;-81
2023/12/27 12:59:26;;;;;;;2.90;1.90;;;;;;;;;;4994633;28;20039;-81
2023/12/27 13:01:52;;;;;;;2.60;1.65;;;;;;;;;;4990690;28;20089;-80
2023/12/27 13:04:22;;;;;;;4.45;1.63;;;;;;;;;;4989893;28;20489;-80
2023/12/27 13:06:48;;;;;;;3.50;1.70;;;;;;;;;;4973074;28;20365;-80
2023/12/27 13:09:14;;;;;;;2.30;1.50;;;;;;;;;;4984224;28;20507;-79
2023/12/27 13:11:40;;;;;;;3.58;1.90;;;;;;;;;;4980329;28;20109;-80
2023/12/27 13:14:05;;;;;;;2.00;1.70;;;;;;;;;;4981646;28;20050;-80
2023/12/27 13:16:31;;;;;;;2.40;1.80;;;;;;;;;;4977579;28;20098;-80
2023/12/27 13:18:59;;;;;;;2.42;1.60;;;;;;;;;;4976053;28;20041;-80
2023/12/27 13:21:27;;;;;;;1.77;1.58;;;;;;;;;;4993743;28;20050;-80
2023/12/27 13:23:53;;;;;;;1.45;1.35;;;;;;;;;;5000250;28;20079;-80
2023/12/27 13:26:19;;;;;;;1.60;1.50;;;;;;;;;;4990364;28;20108;-80
2023/12/27 13:28:45;;;;;;;1.95;1.67;;;;;;;;;;4965855;28;20043;-80
2023/12/27 13:31:11;;;;;;;3.42;2.42;;;;;;;;;;4975475;28;20035;-82
2023/12/27 13:33:36;;;;;;;3.92;2.10;;;;;;;;;;5000134;28;20065;-81
2023/12/27 13:36:01;;;;;;;3.42;2.05;;;;;;;;;;4994130;28;20026;-78
2023/12/27 13:38:26;;;;;;;4.63;2.17;;;;;;;;;;4988736;28;20408;-81
2023/12/27 13:40:54;;;;;;;5.97;2.08;;;;;;;;;;4974270;28;20110;-81
2023/12/27 13:43:19;;;;;;;7.82;4.30;;;;;;;;;;4980185;28;20054;-80
2023/12/27 13:45:44;;;;;;;7.43;4.75;;;;;;;;;;4988963;28;20041;-79
2023/12/27 13:48:09;;;;;;;6.25;4.03;;;;;;;;;;4974820;28;20088;-81
2023/12/27 13:50:35;;;;;;;3.22;2.75;;;;;;;;;;4981918;28;20511;-81
2023/12/27 13:53:01;;;;;;;3.42;2.42;;;;;;;;;;4985389;28;20034;-80
2023/12/27 13:55:27;;;;;;;5.95;2.53;;;;;;;;;;4989057;28;20031;-79
2023/12/27 13:57:52;;;;;;;4.45;2.92;;;;;;;;;;4997907;28;20066;-80
2023/12/27 14:00:18;;;;;;;3.42;2.13;;;;;;;;;;4963493;28;20093;-79
2023/12/27 14:02:46;;;;;;;5.32;2.15;;;;;;;;;;4986540;28;20045;-80
2023/12/27 14:05:11;;;;;;;3.50;1.65;;;;;;;;;;4985274;28;20042;-80
2023/12/27 14:07:38;;;;;;;1.70;1.60;;;;;;;;;;4972197;28;20052;-79
2023/12/27 14:10:04;;;;;;;5.20;1.45;;;;;;;;;;4986865;28;20057;-80
2023/12/27 14:12:30;;;;;;;2.00;1.40;;;;;;;;;;4994287;28;20049;-80
2023/12/27 14:14:57;;;;;;;2.50;1.42;;;;;;;;;;4990435;28;20502;-80
2023/12/27 14:17:22;;;;;;;1.63;1.30;;;;;;;;;;4981973;28;20046;-81
2023/12/27 14:19:48;;;;;;;1.20;1.10;;;;;;;;;;4989440;28;20128;-79
2023/12/27 14:22:13;;;;;;;1.48;1.38;;;;;;;;;;4991517;28;20061;-79
2023/12/27 14:24:38;;;;;;;1.27;1.10;;;;;;;;;;4997608;28;20116;-80
2023/12/27 14:27:04;;;;;;;1.75;1.27;;;;;;;;;;4997882;28;20050;-79
2023/12/27 14:29:29;;;;;;;1.40;1.30;;;;;;;;;;4998179;28;20092;-80
2023/12/27 14:31:54;;;;;;;2.15;1.75;;;;;;;;;;4976483;28;20495;-80
2023/12/27 14:34:20;;;;;;;1.60;1.23;;;;;;;;;;4984849;28;20065;-79
2023/12/27 14:36:46;;;;;;;1.50;1.40;;;;;;;;;;4947037;28;20055;-80